sensor_id;sensor_type;location;lat;lon;timestamp;P1;durP1;ratioP1;P2;durP2;ratioP2
13102;SDS011;52970;46.752;17.108;2023-09-18T00:02:16;7.70;;;7.00;;
13102;SDS011;52970;46.752;17.108;2023-09-18T00:04:41;7.93;;;7.18;;
13102;SDS011;52970;46.752;17.108;2023-09-18T00:07:07;9.02;;;8.20;;
13102;SDS011;52970;46.752;17.108;2023-09-18T00:09:32;8.70;;;7.78;;
13102;SDS011;52970;46.752;17.108;2023-09-18T00:11:57;8.18;;;7.18;;
13102;SDS011;52970;46.752;17.108;2023-09-18T00:14:22;8.35;;;7.47;;
13102;SDS011;52970;46.752;17.108;2023-09-18T00:16:48;9.77;;;8.85;;
13102;SDS011;52970;46.752;17.108;2023-09-18T00:19:13;9.13;;;8.18;;
13102;SDS011;52970;46.752;17.108;2023-09-18T00:21:39;6.55;;;5.95;;
13102;SDS011;52970;46.752;17.108;2023-09-18T00:24:04;6.32;;;5.65;;
13102;SDS011;52970;46.752;17.108;2023-09-18T00:26:29;5.80;;;5.30;;
13102;SDS011;52970;46.752;17.108;2023-09-18T00:28:55;5.40;;;4.90;;
13102;SDS011;52970;46.752;17.108;2023-09-18T00:31:20;4.82;;;4.22;;
13102;SDS011;52970;46.752;17.108;2023-09-18T00:33:45;5.53;;;5.03;;
13102;SDS011;52970;46.752;17.108;2023-09-18T00:36:11;6.00;;;5.40;;
13102;SDS011;52970;46.752;17.108;2023-09-18T00:38:36;4.90;;;4.50;;
13102;SDS011;52970;46.752;17.108;2023-09-18T00:41:01;4.30;;;4.00;;
13102;SDS011;52970;46.752;17.108;2023-09-18T00:43:27;5.05;;;4.47;;
13102;SDS011;52970;46.752;17.108;2023-09-18T00:45:52;5.25;;;4.75;;
13102;SDS011;52970;46.752;17.108;2023-09-18T00:48:17;6.22;;;5.20;;
13102;SDS011;52970;46.752;17.108;2023-09-18T00:50:46;4.97;;;4.57;;
13102;SDS011;52970;46.752;17.108;2023-09-18T00:53:16;6.68;;;6.07;;
13102;SDS011;52970;46.752;17.108;2023-09-18T00:55:41;6.22;;;5.72;;
13102;SDS011;52970;46.752;17.108;2023-09-18T00:58:07;5.88;;;5.43;;
13102;SDS011;52970;46.752;17.108;2023-09-18T01:00:32;5.47;;;5.03;;
13102;SDS011;52970;46.752;17.108;2023-09-18T01:02:58;6.05;;;5.55;;
13102;SDS011;52970;46.752;17.108;2023-09-18T01:05:23;8.25;;;6.25;;
13102;SDS011;52970;46.752;17.108;2023-09-18T01:07:48;7.15;;;6.45;;
13102;SDS011;52970;46.752;17.108;2023-09-18T01:10:14;7.82;;;6.85;;
13102;SDS011;52970;46.752;17.108;2023-09-18T01:16:01;8.15;;;6.32;;
13102;SDS011;52970;46.752;17.108;2023-09-18T01:18:27;7.30;;;6.60;;
13102;SDS011;52970;46.752;17.108;2023-09-18T01:20:53;8.93;;;8.13;;
13102;SDS011;52970;46.752;17.108;2023-09-18T01:23:18;10.13;;;9.13;;
13102;SDS011;52970;46.752;17.108;2023-09-18T01:25:43;8.75;;;7.95;;
13102;SDS011;52970;46.752;17.108;2023-09-18T01:28:08;9.95;;;8.50;;
13102;SDS011;52970;46.752;17.108;2023-09-18T01:30:34;8.20;;;6.97;;
13102;SDS011;52970;46.752;17.108;2023-09-18T01:32:59;8.25;;;6.97;;
13102;SDS011;52970;46.752;17.108;2023-09-18T01:35:26;7.53;;;6.43;;
13102;SDS011;52970;46.752;17.108;2023-09-18T01:37:55;7.80;;;6.53;;
13102;SDS011;52970;46.752;17.108;2023-09-18T01:40:21;7.88;;;6.00;;
13102;SDS011;52970;46.752;17.108;2023-09-18T01:42:46;7.15;;;5.90;;
13102;SDS011;52970;46.752;17.108;2023-09-18T01:45:12;9.18;;;6.50;;
13102;SDS011;52970;46.752;17.108;2023-09-18T01:47:37;7.97;;;6.35;;
13102;SDS011;52970;46.752;17.108;2023-09-18T01:50:03;6.93;;;6.22;;
13102;SDS011;52970;46.752;17.108;2023-09-18T01:52:31;6.28;;;5.68;;
13102;SDS011;52970;46.752;17.108;2023-09-18T01:54:56;7.78;;;6.13;;
13102;SDS011;52970;46.752;17.108;2023-09-18T01:57:22;6.60;;;5.97;;
13102;SDS011;52970;46.752;17.108;2023-09-18T01:59:47;5.78;;;5.28;;
13102;SDS011;52970;46.752;17.108;2023-09-18T02:02:12;5.85;;;5.35;;
13102;SDS011;52970;46.752;17.108;2023-09-18T02:04:37;6.90;;;5.75;;
13102;SDS011;52970;46.752;17.108;2023-09-18T02:07:03;6.78;;;6.18;;
13102;SDS011;52970;46.752;17.108;2023-09-18T02:09:28;14.82;;;10.23;;
13102;SDS011;52970;46.752;17.108;2023-09-18T02:11:53;10.55;;;8.68;;
13102;SDS011;52970;46.752;17.108;2023-09-18T02:14:19;10.25;;;7.55;;
13102;SDS011;52970;46.752;17.108;2023-09-18T02:16:44;11.93;;;10.15;;
13102;SDS011;52970;46.752;17.108;2023-09-18T02:19:10;10.13;;;7.95;;
13102;SDS011;52970;46.752;17.108;2023-09-18T02:21:36;10.13;;;6.57;;
13102;SDS011;52970;46.752;17.108;2023-09-18T02:24:02;7.22;;;6.53;;
13102;SDS011;52970;46.752;17.108;2023-09-18T02:26:28;7.40;;;6.55;;
13102;SDS011;52970;46.752;17.108;2023-09-18T02:28:53;12.18;;;7.28;;
13102;SDS011;52970;46.752;17.108;2023-09-18T02:31:19;10.25;;;7.90;;
13102;SDS011;52970;46.752;17.108;2023-09-18T02:33:45;8.70;;;7.13;;
13102;SDS011;52970;46.752;17.108;2023-09-18T02:36:12;10.90;;;8.43;;
13102;SDS011;52970;46.752;17.108;2023-09-18T02:38:37;12.90;;;9.30;;
13102;SDS011;52970;46.752;17.108;2023-09-18T02:41:02;12.55;;;9.38;;
13102;SDS011;52970;46.752;17.108;2023-09-18T02:43:28;11.48;;;9.13;;
13102;SDS011;52970;46.752;17.108;2023-09-18T02:45:53;9.52;;;7.75;;
13102;SDS011;52970;46.752;17.108;2023-09-18T02:48:18;10.82;;;7.88;;
13102;SDS011;52970;46.752;17.108;2023-09-18T02:50:44;10.55;;;8.25;;
13102;SDS011;52970;46.752;17.108;2023-09-18T02:53:19;9.85;;;8.85;;
13102;SDS011;52970;46.752;17.108;2023-09-18T02:55:46;9.18;;;8.27;;
13102;SDS011;52970;46.752;17.108;2023-09-18T02:58:11;10.93;;;8.25;;
13102;SDS011;52970;46.752;17.108;2023-09-18T03:00:43;11.35;;;9.65;;
13102;SDS011;52970;46.752;17.108;2023-09-18T03:03:08;9.48;;;8.48;;
13102;SDS011;52970;46.752;17.108;2023-09-18T03:05:33;8.07;;;7.28;;
13102;SDS011;52970;46.752;17.108;2023-09-18T03:07:59;9.07;;;7.68;;
13102;SDS011;52970;46.752;17.108;2023-09-18T03:10:24;10.63;;;8.18;;
13102;SDS011;52970;46.752;17.108;2023-09-18T03:12:50;9.82;;;7.78;;
13102;SDS011;52970;46.752;17.108;2023-09-18T03:15:15;10.18;;;8.35;;
13102;SDS011;52970;46.752;17.108;2023-09-18T03:17:40;11.18;;;9.27;;
13102;SDS011;52970;46.752;17.108;2023-09-18T03:20:07;10.07;;;8.75;;
13102;SDS011;52970;46.752;17.108;2023-09-18T03:22:32;8.55;;;7.75;;
13102;SDS011;52970;46.752;17.108;2023-09-18T03:24:57;11.65;;;10.00;;
13102;SDS011;52970;46.752;17.108;2023-09-18T03:27:23;11.32;;;9.30;;
13102;SDS011;52970;46.752;17.108;2023-09-18T03:29:54;10.27;;;9.07;;
13102;SDS011;52970;46.752;17.108;2023-09-18T03:32:19;12.35;;;9.18;;
13102;SDS011;52970;46.752;17.108;2023-09-18T03:34:44;11.27;;;9.00;;
13102;SDS011;52970;46.752;17.108;2023-09-18T03:37:09;9.10;;;8.20;;
13102;SDS011;52970;46.752;17.108;2023-09-18T03:39:35;11.80;;;8.52;;
13102;SDS011;52970;46.752;17.108;2023-09-18T03:42:00;9.25;;;8.25;;
13102;SDS011;52970;46.752;17.108;2023-09-18T03:44:25;10.25;;;8.60;;
13102;SDS011;52970;46.752;17.108;2023-09-18T03:46:50;8.93;;;7.93;;
13102;SDS011;52970;46.752;17.108;2023-09-18T03:49:16;8.60;;;7.75;;
13102;SDS011;52970;46.752;17.108;2023-09-18T03:51:41;7.63;;;6.82;;
13102;SDS011;52970;46.752;17.108;2023-09-18T03:54:06;8.35;;;7.55;;
13102;SDS011;52970;46.752;17.108;2023-09-18T03:56:31;7.88;;;7.18;;
13102;SDS011;52970;46.752;17.108;2023-09-18T03:58:57;7.25;;;6.55;;
13102;SDS011;52970;46.752;17.108;2023-09-18T04:01:23;7.35;;;6.75;;
13102;SDS011;52970;46.752;17.108;2023-09-18T04:03:49;7.65;;;6.97;;
13102;SDS011;52970;46.752;17.108;2023-09-18T04:06:14;7.35;;;6.65;;
13102;SDS011;52970;46.752;17.108;2023-09-18T04:08:39;9.10;;;7.57;;
13102;SDS011;52970;46.752;17.108;2023-09-18T04:11:04;7.85;;;6.85;;
13102;SDS011;52970;46.752;17.108;2023-09-18T04:13:30;8.20;;;7.40;;
13102;SDS011;52970;46.752;17.108;2023-09-18T04:15:55;9.30;;;7.70;;
13102;SDS011;52970;46.752;17.108;2023-09-18T04:18:22;7.63;;;6.93;;
13102;SDS011;52970;46.752;17.108;2023-09-18T04:20:47;7.80;;;7.10;;
13102;SDS011;52970;46.752;17.108;2023-09-18T04:25:47;7.80;;;7.00;;
13102;SDS011;52970;46.752;17.108;2023-09-18T04:28:12;7.60;;;6.88;;
13102;SDS011;52970;46.752;17.108;2023-09-18T04:30:38;8.30;;;7.43;;
13102;SDS011;52970;46.752;17.108;2023-09-18T04:33:04;7.63;;;6.93;;
13102;SDS011;52970;46.752;17.108;2023-09-18T04:35:29;7.15;;;6.45;;
13102;SDS011;52970;46.752;17.108;2023-09-18T04:37:56;7.25;;;6.55;;
13102;SDS011;52970;46.752;17.108;2023-09-18T04:40:24;7.10;;;6.50;;
13102;SDS011;52970;46.752;17.108;2023-09-18T04:42:50;6.72;;;6.20;;
13102;SDS011;52970;46.752;17.108;2023-09-18T04:45:15;7.60;;;6.55;;
13102;SDS011;52970;46.752;17.108;2023-09-18T04:47:41;8.38;;;7.63;;
13102;SDS011;52970;46.752;17.108;2023-09-18T04:50:06;6.97;;;6.20;;
13102;SDS011;52970;46.752;17.108;2023-09-18T04:52:35;7.53;;;6.65;;
13102;SDS011;52970;46.752;17.108;2023-09-18T04:55:00;7.55;;;6.75;;
13102;SDS011;52970;46.752;17.108;2023-09-18T04:57:25;7.88;;;7.07;;
13102;SDS011;52970;46.752;17.108;2023-09-18T04:59:51;8.98;;;6.80;;
13102;SDS011;52970;46.752;17.108;2023-09-18T05:02:16;6.80;;;6.20;;
13102;SDS011;52970;46.752;17.108;2023-09-18T05:04:42;6.95;;;6.03;;
13102;SDS011;52970;46.752;17.108;2023-09-18T05:07:07;8.52;;;6.40;;
13102;SDS011;52970;46.752;17.108;2023-09-18T05:09:32;6.25;;;5.75;;
13102;SDS011;52970;46.752;17.108;2023-09-18T05:11:59;6.00;;;5.50;;
13102;SDS011;52970;46.752;17.108;2023-09-18T05:14:25;6.88;;;6.15;;
13102;SDS011;52970;46.752;17.108;2023-09-18T05:16:50;9.48;;;7.93;;
13102;SDS011;52970;46.752;17.108;2023-09-18T05:19:15;14.40;;;9.48;;
13102;SDS011;52970;46.752;17.108;2023-09-18T05:21:40;15.15;;;12.02;;
13102;SDS011;52970;46.752;17.108;2023-09-18T05:24:07;15.98;;;12.15;;
13102;SDS011;52970;46.752;17.108;2023-09-18T05:26:32;14.20;;;12.77;;
13102;SDS011;52970;46.752;17.108;2023-09-18T05:28:58;12.95;;;11.60;;
13102;SDS011;52970;46.752;17.108;2023-09-18T05:31:23;14.05;;;12.63;;
13102;SDS011;52970;46.752;17.108;2023-09-18T05:33:49;18.38;;;14.60;;
13102;SDS011;52970;46.752;17.108;2023-09-18T05:36:16;20.23;;;14.98;;
13102;SDS011;52970;46.752;17.108;2023-09-18T05:38:41;14.77;;;13.38;;
13102;SDS011;52970;46.752;17.108;2023-09-18T05:41:08;15.10;;;13.60;;
13102;SDS011;52970;46.752;17.108;2023-09-18T05:43:34;17.52;;;15.82;;
13102;SDS011;52970;46.752;17.108;2023-09-18T05:46:00;18.13;;;15.82;;
13102;SDS011;52970;46.752;17.108;2023-09-18T05:48:25;18.88;;;15.98;;
13102;SDS011;52970;46.752;17.108;2023-09-18T05:50:51;18.25;;;15.20;;
13102;SDS011;52970;46.752;17.108;2023-09-18T05:53:17;16.58;;;14.80;;
13102;SDS011;52970;46.752;17.108;2023-09-18T05:55:43;17.92;;;15.70;;
13102;SDS011;52970;46.752;17.108;2023-09-18T05:58:09;19.55;;;16.35;;
13102;SDS011;52970;46.752;17.108;2023-09-18T06:00:34;20.20;;;17.15;;
13102;SDS011;52970;46.752;17.108;2023-09-18T06:02:59;19.27;;;16.60;;
13102;SDS011;52970;46.752;17.108;2023-09-18T06:05:25;19.05;;;17.08;;
13102;SDS011;52970;46.752;17.108;2023-09-18T06:07:50;18.55;;;16.45;;
13102;SDS011;52970;46.752;17.108;2023-09-18T06:10:16;20.95;;;17.15;;
13102;SDS011;52970;46.752;17.108;2023-09-18T06:12:42;19.85;;;17.58;;
13102;SDS011;52970;46.752;17.108;2023-09-18T06:15:09;17.10;;;15.40;;
13102;SDS011;52970;46.752;17.108;2023-09-18T06:17:38;19.20;;;17.00;;
13102;SDS011;52970;46.752;17.108;2023-09-18T06:20:04;18.20;;;16.13;;
13102;SDS011;52970;46.752;17.108;2023-09-18T06:22:29;17.05;;;15.30;;
13102;SDS011;52970;46.752;17.108;2023-09-18T06:24:55;16.80;;;15.00;;
13102;SDS011;52970;46.752;17.108;2023-09-18T06:27:20;19.10;;;15.50;;
13102;SDS011;52970;46.752;17.108;2023-09-18T06:29:45;17.10;;;15.40;;
13102;SDS011;52970;46.752;17.108;2023-09-18T06:32:11;18.20;;;14.70;;
13102;SDS011;52970;46.752;17.108;2023-09-18T06:34:37;17.20;;;15.27;;
13102;SDS011;52970;46.752;17.108;2023-09-18T06:37:03;17.30;;;14.77;;
13102;SDS011;52970;46.752;17.108;2023-09-18T06:39:29;16.25;;;14.52;;
13102;SDS011;52970;46.752;17.108;2023-09-18T06:41:54;16.77;;;14.45;;
13102;SDS011;52970;46.752;17.108;2023-09-18T06:44:19;15.63;;;13.90;;
13102;SDS011;52970;46.752;17.108;2023-09-18T06:46:46;16.13;;;14.45;;
13102;SDS011;52970;46.752;17.108;2023-09-18T06:49:12;16.13;;;14.52;;
13102;SDS011;52970;46.752;17.108;2023-09-18T06:51:37;15.10;;;13.55;;
13102;SDS011;52970;46.752;17.108;2023-09-18T06:54:02;15.82;;;14.23;;
13102;SDS011;52970;46.752;17.108;2023-09-18T06:56:28;16.00;;;13.80;;
13102;SDS011;52970;46.752;17.108;2023-09-18T06:58:53;16.33;;;12.55;;
13102;SDS011;52970;46.752;17.108;2023-09-18T07:01:20;15.85;;;13.98;;
13102;SDS011;52970;46.752;17.108;2023-09-18T07:03:48;15.18;;;13.63;;
13102;SDS011;52970;46.752;17.108;2023-09-18T07:06:14;15.98;;;14.30;;
13102;SDS011;52970;46.752;17.108;2023-09-18T07:08:41;15.82;;;13.50;;
13102;SDS011;52970;46.752;17.108;2023-09-18T07:11:07;15.05;;;13.48;;
13102;SDS011;52970;46.752;17.108;2023-09-18T07:13:32;20.30;;;14.98;;
13102;SDS011;52970;46.752;17.108;2023-09-18T07:15:57;15.90;;;13.18;;
13102;SDS011;52970;46.752;17.108;2023-09-18T07:18:22;16.23;;;13.65;;
13102;SDS011;52970;46.752;17.108;2023-09-18T07:20:48;15.73;;;13.68;;
13102;SDS011;52970;46.752;17.108;2023-09-18T07:23:13;15.60;;;14.00;;
13102;SDS011;52970;46.752;17.108;2023-09-18T07:25:38;15.23;;;13.02;;
13102;SDS011;52970;46.752;17.108;2023-09-18T07:28:07;14.02;;;12.55;;
13102;SDS011;52970;46.752;17.108;2023-09-18T07:30:33;17.45;;;13.43;;
13102;SDS011;52970;46.752;17.108;2023-09-18T07:32:59;15.40;;;12.70;;
13102;SDS011;52970;46.752;17.108;2023-09-18T07:35:25;14.20;;;12.80;;
13102;SDS011;52970;46.752;17.108;2023-09-18T07:37:50;13.30;;;11.82;;
13102;SDS011;52970;46.752;17.108;2023-09-18T07:40:16;13.02;;;11.23;;
13102;SDS011;52970;46.752;17.108;2023-09-18T07:42:41;13.38;;;12.07;;
13102;SDS011;52970;46.752;17.108;2023-09-18T07:45:08;14.50;;;12.57;;
13102;SDS011;52970;46.752;17.108;2023-09-18T07:47:34;13.75;;;11.10;;
13102;SDS011;52970;46.752;17.108;2023-09-18T07:49:59;12.55;;;11.25;;
13102;SDS011;52970;46.752;17.108;2023-09-18T07:52:24;13.30;;;11.98;;
13102;SDS011;52970;46.752;17.108;2023-09-18T07:54:49;13.20;;;11.80;;
13102;SDS011;52970;46.752;17.108;2023-09-18T07:57:15;12.63;;;11.18;;
13102;SDS011;52970;46.752;17.108;2023-09-18T07:59:40;13.68;;;11.00;;
13102;SDS011;52970;46.752;17.108;2023-09-18T08:02:07;13.50;;;11.02;;
13102;SDS011;52970;46.752;17.108;2023-09-18T08:04:34;11.38;;;10.20;;
13102;SDS011;52970;46.752;17.108;2023-09-18T08:06:59;11.32;;;10.23;;
13102;SDS011;52970;46.752;17.108;2023-09-18T08:09:25;12.45;;;10.80;;
13102;SDS011;52970;46.752;17.108;2023-09-18T08:11:50;12.27;;;10.75;;
13102;SDS011;52970;46.752;17.108;2023-09-18T08:14:20;12.77;;;9.50;;
13102;SDS011;52970;46.752;17.108;2023-09-18T08:16:45;12.10;;;10.85;;
13102;SDS011;52970;46.752;17.108;2023-09-18T08:19:11;11.77;;;10.68;;
13102;SDS011;52970;46.752;17.108;2023-09-18T08:21:40;11.07;;;10.00;;
13102;SDS011;52970;46.752;17.108;2023-09-18T08:24:05;15.35;;;10.63;;
13102;SDS011;52970;46.752;17.108;2023-09-18T08:26:30;10.85;;;9.85;;
13102;SDS011;52970;46.752;17.108;2023-09-18T08:28:56;10.80;;;9.70;;
13102;SDS011;52970;46.752;17.108;2023-09-18T08:31:21;12.07;;;10.30;;
13102;SDS011;52970;46.752;17.108;2023-09-18T08:33:46;11.77;;;9.95;;
13102;SDS011;52970;46.752;17.108;2023-09-18T08:36:11;10.73;;;9.73;;
13102;SDS011;52970;46.752;17.108;2023-09-18T08:38:37;10.18;;;9.25;;
13102;SDS011;52970;46.752;17.108;2023-09-18T08:41:03;11.63;;;10.25;;
13102;SDS011;52970;46.752;17.108;2023-09-18T08:43:29;15.88;;;9.60;;
13102;SDS011;52970;46.752;17.108;2023-09-18T08:45:56;10.30;;;9.30;;
13102;SDS011;52970;46.752;17.108;2023-09-18T08:48:27;10.23;;;9.30;;
13102;SDS011;52970;46.752;17.108;2023-09-18T08:50:59;13.75;;;9.70;;
13102;SDS011;52970;46.752;17.108;2023-09-18T08:53:25;9.57;;;8.68;;
13102;SDS011;52970;46.752;17.108;2023-09-18T08:55:50;10.30;;;8.90;;
13102;SDS011;52970;46.752;17.108;2023-09-18T08:58:16;13.32;;;9.65;;
13102;SDS011;52970;46.752;17.108;2023-09-18T09:00:44;10.85;;;9.43;;
13102;SDS011;52970;46.752;17.108;2023-09-18T09:03:09;11.65;;;9.48;;
13102;SDS011;52970;46.752;17.108;2023-09-18T09:05:35;10.65;;;9.63;;
13102;SDS011;52970;46.752;17.108;2023-09-18T09:08:00;10.38;;;9.38;;
13102;SDS011;52970;46.752;17.108;2023-09-18T09:10:26;10.05;;;9.15;;
13102;SDS011;52970;46.752;17.108;2023-09-18T09:15:26;8.70;;;7.85;;
13102;SDS011;52970;46.752;17.108;2023-09-18T09:17:52;12.05;;;8.65;;
13102;SDS011;52970;46.752;17.108;2023-09-18T09:20:26;9.27;;;8.38;;
13102;SDS011;52970;46.752;17.108;2023-09-18T09:22:51;11.80;;;9.25;;
13102;SDS011;52970;46.752;17.108;2023-09-18T09:25:25;9.00;;;8.15;;
13102;SDS011;52970;46.752;17.108;2023-09-18T09:27:54;9.10;;;8.18;;
13102;SDS011;52970;46.752;17.108;2023-09-18T09:30:20;10.20;;;8.50;;
13102;SDS011;52970;46.752;17.108;2023-09-18T09:32:49;9.48;;;8.35;;
13102;SDS011;52970;46.752;17.108;2023-09-18T09:35:22;10.18;;;8.07;;
13102;SDS011;52970;46.752;17.108;2023-09-18T09:37:49;8.73;;;7.82;;
13102;SDS011;52970;46.752;17.108;2023-09-18T09:40:15;12.38;;;7.60;;
13102;SDS011;52970;46.752;17.108;2023-09-18T09:42:41;9.77;;;7.20;;
13102;SDS011;52970;46.752;17.108;2023-09-18T09:45:13;9.38;;;7.10;;
13102;SDS011;52970;46.752;17.108;2023-09-18T09:47:39;9.65;;;6.70;;
13102;SDS011;52970;46.752;17.108;2023-09-18T09:50:05;11.02;;;6.35;;
13102;SDS011;52970;46.752;17.108;2023-09-18T09:52:33;9.32;;;6.07;;
13102;SDS011;52970;46.752;17.108;2023-09-18T09:54:58;7.22;;;5.88;;
13102;SDS011;52970;46.752;17.108;2023-09-18T09:57:23;8.57;;;5.77;;
13102;SDS011;52970;46.752;17.108;2023-09-18T09:59:49;6.15;;;5.40;;
13102;SDS011;52970;46.752;17.108;2023-09-18T10:02:14;6.47;;;5.30;;
13102;SDS011;52970;46.752;17.108;2023-09-18T10:04:44;11.75;;;5.65;;
13102;SDS011;52970;46.752;17.108;2023-09-18T10:07:13;6.93;;;5.65;;
13102;SDS011;52970;46.752;17.108;2023-09-18T10:09:39;5.78;;;5.18;;
13102;SDS011;52970;46.752;17.108;2023-09-18T10:12:09;7.18;;;5.35;;
13102;SDS011;52970;46.752;17.108;2023-09-18T10:14:35;8.05;;;5.35;;
13102;SDS011;52970;46.752;17.108;2023-09-18T10:17:09;6.38;;;5.53;;
13102;SDS011;52970;46.752;17.108;2023-09-18T10:19:44;8.63;;;5.90;;
13102;SDS011;52970;46.752;17.108;2023-09-18T10:24:39;6.85;;;5.03;;
13102;SDS011;52970;46.752;17.108;2023-09-18T10:27:06;7.32;;;4.85;;
13102;SDS011;52970;46.752;17.108;2023-09-18T10:29:35;5.65;;;4.88;;
13102;SDS011;52970;46.752;17.108;2023-09-18T10:32:04;9.88;;;5.55;;
13102;SDS011;52970;46.752;17.108;2023-09-18T10:34:30;6.88;;;5.20;;
13102;SDS011;52970;46.752;17.108;2023-09-18T10:36:56;8.13;;;4.93;;
13102;SDS011;52970;46.752;17.108;2023-09-18T10:39:25;6.80;;;4.78;;
13102;SDS011;52970;46.752;17.108;2023-09-18T10:41:55;9.13;;;4.90;;
13102;SDS011;52970;46.752;17.108;2023-09-18T10:44:22;8.32;;;4.85;;
13102;SDS011;52970;46.752;17.108;2023-09-18T10:46:48;7.13;;;5.00;;
13102;SDS011;52970;46.752;17.108;2023-09-18T10:49:14;7.68;;;4.72;;
13102;SDS011;52970;46.752;17.108;2023-09-18T10:51:39;7.72;;;5.00;;
13102;SDS011;52970;46.752;17.108;2023-09-18T10:54:08;6.13;;;5.07;;
13102;SDS011;52970;46.752;17.108;2023-09-18T10:56:33;9.57;;;5.80;;
13102;SDS011;52970;46.752;17.108;2023-09-18T10:58:59;8.10;;;5.43;;
13102;SDS011;52970;46.752;17.108;2023-09-18T11:01:24;6.03;;;4.80;;
13102;SDS011;52970;46.752;17.108;2023-09-18T11:03:52;8.68;;;5.22;;
13102;SDS011;52970;46.752;17.108;2023-09-18T11:06:17;8.18;;;4.97;;
13102;SDS011;52970;46.752;17.108;2023-09-18T11:08:46;6.43;;;5.60;;
13102;SDS011;52970;46.752;17.108;2023-09-18T11:11:12;7.35;;;5.50;;
13102;SDS011;52970;46.752;17.108;2023-09-18T11:13:52;6.78;;;5.57;;
13102;SDS011;52970;46.752;17.108;2023-09-18T11:18:52;7.45;;;5.68;;
13102;SDS011;52970;46.752;17.108;2023-09-18T11:21:17;8.20;;;5.75;;
13102;SDS011;52970;46.752;17.108;2023-09-18T11:23:44;6.60;;;5.85;;
13102;SDS011;52970;46.752;17.108;2023-09-18T11:26:09;7.30;;;5.60;;
13102;SDS011;52970;46.752;17.108;2023-09-18T11:28:35;7.45;;;5.50;;
13102;SDS011;52970;46.752;17.108;2023-09-18T11:31:02;8.63;;;5.80;;
13102;SDS011;52970;46.752;17.108;2023-09-18T11:33:49;10.05;;;5.30;;
13102;SDS011;52970;46.752;17.108;2023-09-18T11:36:14;6.20;;;5.70;;
13102;SDS011;52970;46.752;17.108;2023-09-18T11:38:54;9.18;;;5.53;;
13102;SDS011;52970;46.752;17.108;2023-09-18T11:41:22;12.50;;;5.95;;
13102;SDS011;52970;46.752;17.108;2023-09-18T11:43:47;6.63;;;5.50;;
13102;SDS011;52970;46.752;17.108;2023-09-18T11:46:13;5.82;;;5.22;;
13102;SDS011;52970;46.752;17.108;2023-09-18T11:48:43;9.57;;;5.47;;
13102;SDS011;52970;46.752;17.108;2023-09-18T11:51:08;6.03;;;5.50;;
13102;SDS011;52970;46.752;17.108;2023-09-18T11:53:36;8.02;;;5.43;;
13102;SDS011;52970;46.752;17.108;2023-09-18T11:56:09;7.55;;;5.80;;
13102;SDS011;52970;46.752;17.108;2023-09-18T11:58:49;7.43;;;5.43;;
13102;SDS011;52970;46.752;17.108;2023-09-18T12:01:15;8.73;;;5.10;;
13102;SDS011;52970;46.752;17.108;2023-09-18T12:03:41;5.75;;;4.90;;
13102;SDS011;52970;46.752;17.108;2023-09-18T12:06:06;8.55;;;4.30;;
13102;SDS011;52970;46.752;17.108;2023-09-18T12:08:33;7.43;;;4.90;;
13102;SDS011;52970;46.752;17.108;2023-09-18T12:11:00;10.93;;;4.65;;
13102;SDS011;52970;46.752;17.108;2023-09-18T12:13:30;5.45;;;4.90;;
13102;SDS011;52970;46.752;17.108;2023-09-18T12:15:56;6.35;;;5.15;;
13102;SDS011;52970;46.752;17.108;2023-09-18T12:18:22;7.15;;;4.78;;
13102;SDS011;52970;46.752;17.108;2023-09-18T12:20:49;6.60;;;4.50;;
13102;SDS011;52970;46.752;17.108;2023-09-18T12:23:18;6.75;;;4.70;;
13102;SDS011;52970;46.752;17.108;2023-09-18T12:25:47;6.47;;;5.07;;
13102;SDS011;52970;46.752;17.108;2023-09-18T12:28:13;8.00;;;4.95;;
13102;SDS011;52970;46.752;17.108;2023-09-18T12:30:39;11.25;;;4.70;;
13102;SDS011;52970;46.752;17.108;2023-09-18T12:33:05;10.20;;;5.45;;
13102;SDS011;52970;46.752;17.108;2023-09-18T12:35:30;7.43;;;5.00;;
13102;SDS011;52970;46.752;17.108;2023-09-18T12:37:57;9.32;;;5.13;;
13102;SDS011;52970;46.752;17.108;2023-09-18T12:40:26;8.45;;;5.40;;
13102;SDS011;52970;46.752;17.108;2023-09-18T12:42:53;7.70;;;5.20;;
13102;SDS011;52970;46.752;17.108;2023-09-18T12:45:19;9.82;;;4.90;;
13102;SDS011;52970;46.752;17.108;2023-09-18T12:47:45;10.27;;;5.78;;
13102;SDS011;52970;46.752;17.108;2023-09-18T12:50:12;7.55;;;4.55;;
13102;SDS011;52970;46.752;17.108;2023-09-18T12:52:38;9.55;;;5.28;;
13102;SDS011;52970;46.752;17.108;2023-09-18T12:55:03;5.85;;;5.15;;
13102;SDS011;52970;46.752;17.108;2023-09-18T12:57:31;6.88;;;5.28;;
13102;SDS011;52970;46.752;17.108;2023-09-18T12:59:56;8.25;;;5.50;;
13102;SDS011;52970;46.752;17.108;2023-09-18T13:02:21;6.18;;;5.57;;
13102;SDS011;52970;46.752;17.108;2023-09-18T13:04:55;8.32;;;5.40;;
13102;SDS011;52970;46.752;17.108;2023-09-18T13:07:20;10.65;;;5.28;;
13102;SDS011;52970;46.752;17.108;2023-09-18T13:09:59;6.53;;;5.10;;
13102;SDS011;52970;46.752;17.108;2023-09-18T13:12:25;6.93;;;5.32;;
13102;SDS011;52970;46.752;17.108;2023-09-18T13:15:00;7.70;;;5.25;;
13102;SDS011;52970;46.752;17.108;2023-09-18T13:17:37;10.40;;;5.40;;
13102;SDS011;52970;46.752;17.108;2023-09-18T13:20:21;9.32;;;5.35;;
13102;SDS011;52970;46.752;17.108;2023-09-18T13:22:53;11.60;;;5.90;;
13102;SDS011;52970;46.752;17.108;2023-09-18T13:25:25;8.60;;;5.75;;
13102;SDS011;52970;46.752;17.108;2023-09-18T13:27:51;9.50;;;5.65;;
13102;SDS011;52970;46.752;17.108;2023-09-18T13:30:17;8.60;;;5.43;;
13102;SDS011;52970;46.752;17.108;2023-09-18T13:32:46;8.48;;;5.30;;
13102;SDS011;52970;46.752;17.108;2023-09-18T13:35:13;11.85;;;5.97;;
13102;SDS011;52970;46.752;17.108;2023-09-18T13:37:39;7.03;;;5.35;;
13102;SDS011;52970;46.752;17.108;2023-09-18T13:40:05;5.88;;;4.93;;
13102;SDS011;52970;46.752;17.108;2023-09-18T13:42:34;13.75;;;6.28;;
13102;SDS011;52970;46.752;17.108;2023-09-18T13:44:59;5.63;;;4.95;;
13102;SDS011;52970;46.752;17.108;2023-09-18T13:47:26;7.50;;;5.40;;
13102;SDS011;52970;46.752;17.108;2023-09-18T13:49:52;9.07;;;6.00;;
13102;SDS011;52970;46.752;17.108;2023-09-18T13:52:17;9.57;;;6.20;;
13102;SDS011;52970;46.752;17.108;2023-09-18T13:54:43;12.18;;;5.78;;
13102;SDS011;52970;46.752;17.108;2023-09-18T13:57:08;7.65;;;5.18;;
13102;SDS011;52970;46.752;17.108;2023-09-18T13:59:33;7.28;;;5.43;;
13102;SDS011;52970;46.752;17.108;2023-09-18T14:01:59;10.02;;;5.72;;
13102;SDS011;52970;46.752;17.108;2023-09-18T14:04:24;11.75;;;5.13;;
13102;SDS011;52970;46.752;17.108;2023-09-18T14:06:49;8.97;;;5.03;;
13102;SDS011;52970;46.752;17.108;2023-09-18T14:09:14;12.30;;;5.73;;
13102;SDS011;52970;46.752;17.108;2023-09-18T14:11:42;8.95;;;5.53;;
13102;SDS011;52970;46.752;17.108;2023-09-18T14:14:07;9.30;;;5.50;;
13102;SDS011;52970;46.752;17.108;2023-09-18T14:16:32;10.05;;;4.78;;
13102;SDS011;52970;46.752;17.108;2023-09-18T14:18:58;11.13;;;5.30;;
13102;SDS011;52970;46.752;17.108;2023-09-18T14:21:24;9.10;;;6.03;;
13102;SDS011;52970;46.752;17.108;2023-09-18T14:23:49;7.05;;;5.40;;
13102;SDS011;52970;46.752;17.108;2023-09-18T14:26:14;8.48;;;5.60;;
13102;SDS011;52970;46.752;17.108;2023-09-18T14:28:40;8.52;;;5.85;;
13102;SDS011;52970;46.752;17.108;2023-09-18T14:31:05;10.25;;;6.03;;
13102;SDS011;52970;46.752;17.108;2023-09-18T14:33:30;11.13;;;5.45;;
13102;SDS011;52970;46.752;17.108;2023-09-18T14:35:55;5.83;;;5.20;;